Time;durP1;ratioP1;P1;durP2;ratioP2;P2;SDS_P1;SDS_P2;PMS_P1;PMS_P2;Temp;Humidity;BMP_temperature;BMP_pressure;BME280_temperature;BME280_humidity;BME280_pressure;Samples;Min_cycle;Max_cycle;Signal;HPM_P1;HPM_P2
2023/12/22 00:01:18;;;;;;;28.85;5.63;;;;;;;;;;5001403;28;20178;-60
2023/12/22 00:03:45;;;;;;;14.48;3.38;;;;;;;;;;5000915;28;20637;-60
2023/12/22 00:06:12;;;;;;;15.77;3.00;;;;;;;;;;5000950;28;20057;-59
2023/12/22 00:08:38;;;;;;;15.48;2.72;;;;;;;;;;4999538;28;20037;-59
2023/12/22 00:11:04;;;;;;;18.50;3.38;;;;;;;;;;4998569;28;22455;-60
2023/12/22 00:13:33;;;;;;;20.25;3.95;;;;;;;;;;4998612;28;20111;-59
2023/12/22 00:15:59;;;;;;;23.85;6.00;;;;;;;;;;5000895;28;20033;-60
2023/12/22 00:18:25;;;;;;;21.98;3.20;;;;;;;;;;5000981;28;21869;-60
2023/12/22 00:20:51;;;;;;;21.65;4.32;;;;;;;;;;4999803;28;20633;-60
2023/12/22 00:23:17;;;;;;;24.52;3.88;;;;;;;;;;5000992;28;20480;-59
2023/12/22 00:25:43;;;;;;;24.92;4.45;;;;;;;;;;4999315;28;20353;-60
2023/12/22 00:28:09;;;;;;;19.60;4.63;;;;;;;;;;5000886;28;20732;-60
2023/12/22 00:30:35;;;;;;;19.25;3.58;;;;;;;;;;5000924;28;20622;-59
2023/12/22 00:33:01;;;;;;;17.67;3.85;;;;;;;;;;5000691;28;20025;-60
2023/12/22 00:35:27;;;;;;;15.20;2.25;;;;;;;;;;5000059;28;20484;-60
2023/12/22 00:37:53;;;;;;;17.02;3.85;;;;;;;;;;4999836;28;20041;-60
2023/12/22 00:40:19;;;;;;;20.83;3.65;;;;;;;;;;4999725;28;20049;-59
2023/12/22 00:42:45;;;;;;;21.75;4.18;;;;;;;;;;4999258;28;20041;-60
2023/12/22 00:45:11;;;;;;;17.60;2.80;;;;;;;;;;5000073;28;20140;-60
2023/12/22 00:47:38;;;;;;;11.50;2.17;;;;;;;;;;4999184;28;20065;-60
2023/12/22 00:50:05;;;;;;;9.82;1.30;;;;;;;;;;5000432;28;20042;-59
2023/12/22 00:52:31;;;;;;;12.77;2.25;;;;;;;;;;4999806;28;20025;-60
2023/12/22 00:54:57;;;;;;;13.48;2.60;;;;;;;;;;4999438;28;20080;-60
2023/12/22 00:57:23;;;;;;;11.77;2.10;;;;;;;;;;4999615;28;21677;-59
2023/12/22 00:59:49;;;;;;;15.05;2.17;;;;;;;;;;4997609;28;20053;-59
2023/12/22 01:02:16;;;;;;;22.00;3.15;;;;;;;;;;4998882;28;20075;-60
2023/12/22 01:04:42;;;;;;;13.27;2.47;;;;;;;;;;4999461;28;20022;-60
2023/12/22 01:07:08;;;;;;;19.42;3.35;;;;;;;;;;4999778;28;20026;-60
2023/12/22 01:09:35;;;;;;;17.98;3.38;;;;;;;;;;4999411;28;20033;-60
2023/12/22 01:12:04;;;;;;;18.67;3.33;;;;;;;;;;4998230;28;20029;-60
2023/12/22 01:14:30;;;;;;;20.33;3.53;;;;;;;;;;4999852;28;21038;-59
2023/12/22 01:16:56;;;;;;;16.60;2.72;;;;;;;;;;4997916;28;21207;-60
2023/12/22 01:19:22;;;;;;;21.38;4.15;;;;;;;;;;4999625;28;20036;-60
2023/12/22 01:21:49;;;;;;;22.30;3.88;;;;;;;;;;4998302;28;20033;-60
2023/12/22 01:24:15;;;;;;;18.35;3.63;;;;;;;;;;4999663;28;20033;-60
2023/12/22 01:26:41;;;;;;;18.90;3.13;;;;;;;;;;4999516;28;20061;-60
2023/12/22 01:29:07;;;;;;;18.92;4.38;;;;;;;;;;4998832;28;20044;-60
2023/12/22 01:31:33;;;;;;;19.30;3.80;;;;;;;;;;4998987;28;20030;-60
2023/12/22 01:33:59;;;;;;;22.70;3.70;;;;;;;;;;4999403;28;20139;-60
2023/12/22 01:36:25;;;;;;;21.98;3.75;;;;;;;;;;4998098;28;20550;-60
2023/12/22 01:38:51;;;;;;;30.73;6.65;;;;;;;;;;4999249;28;20553;-60
2023/12/22 01:41:17;;;;;;;25.45;4.68;;;;;;;;;;4998753;28;20410;-60
2023/12/22 01:43:44;;;;;;;27.13;3.80;;;;;;;;;;4999885;28;20033;-59
2023/12/22 01:46:10;;;;;;;16.88;3.25;;;;;;;;;;5000091;28;20022;-60
2023/12/22 01:48:36;;;;;;;22.35;4.03;;;;;;;;;;4998952;28;20382;-60
2023/12/22 01:51:03;;;;;;;25.48;4.55;;;;;;;;;;4997609;28;20666;-59
2023/12/22 01:53:29;;;;;;;22.98;4.47;;;;;;;;;;4998550;28;20141;-59
2023/12/22 01:55:55;;;;;;;25.45;4.85;;;;;;;;;;4998054;28;20029;-60
2023/12/22 01:58:23;;;;;;;30.70;4.43;;;;;;;;;;4999100;28;20766;-60
2023/12/22 02:00:50;;;;;;;24.23;4.63;;;;;;;;;;4998848;28;20090;-60
2023/12/22 02:03:17;;;;;;;26.45;5.20;;;;;;;;;;4998317;28;20805;-60
2023/12/22 02:05:44;;;;;;;20.77;3.92;;;;;;;;;;4999269;28;20826;-60
2023/12/22 02:08:11;;;;;;;29.30;4.82;;;;;;;;;;4998532;28;20818;-59
2023/12/22 02:10:37;;;;;;;31.58;4.90;;;;;;;;;;4997496;28;20018;-60
2023/12/22 02:13:04;;;;;;;27.98;5.53;;;;;;;;;;4998194;28;20033;-60
2023/12/22 02:15:30;;;;;;;25.95;4.95;;;;;;;;;;4998856;28;20075;-60
2023/12/22 02:18:03;;;;;;;26.65;4.47;;;;;;;;;;4996470;28;20921;-59
2023/12/22 02:20:29;;;;;;;16.67;2.88;;;;;;;;;;4997993;28;20055;-59
2023/12/22 02:22:55;;;;;;;18.10;2.80;;;;;;;;;;4998484;28;20535;-60
2023/12/22 02:25:21;;;;;;;10.70;2.17;;;;;;;;;;4998602;28;20437;-59
2023/12/22 02:28:00;;;;;;;15.73;2.50;;;;;;;;;;4998720;28;20087;-60
2023/12/22 02:30:41;;;;;;;11.48;2.28;;;;;;;;;;4998104;28;21315;-59
2023/12/22 02:33:08;;;;;;;15.68;3.33;;;;;;;;;;4997064;28;20118;-59
2023/12/22 02:35:36;;;;;;;16.88;2.88;;;;;;;;;;4997091;28;20025;-59
2023/12/22 02:38:03;;;;;;;19.95;2.60;;;;;;;;;;4998577;28;20037;-59
2023/12/22 02:40:30;;;;;;;16.90;3.33;;;;;;;;;;4997499;28;20026;-59
2023/12/22 02:42:56;;;;;;;25.58;4.90;;;;;;;;;;4998672;28;21546;-60
2023/12/22 02:45:22;;;;;;;22.77;3.53;;;;;;;;;;4997514;28;20946;-60
2023/12/22 02:47:48;;;;;;;24.02;3.05;;;;;;;;;;4997996;28;20033;-60
2023/12/22 02:50:16;;;;;;;20.23;3.67;;;;;;;;;;4996525;28;20039;-59
2023/12/22 02:52:42;;;;;;;25.15;4.38;;;;;;;;;;4997891;28;20029;-59
2023/12/22 02:55:08;;;;;;;26.20;4.03;;;;;;;;;;4996934;28;20091;-59
2023/12/22 02:57:35;;;;;;;23.88;3.88;;;;;;;;;;4997696;28;20029;-59
2023/12/22 03:00:01;;;;;;;25.35;4.10;;;;;;;;;;4998158;28;20045;-59
2023/12/22 03:02:27;;;;;;;24.77;3.58;;;;;;;;;;4997415;28;20029;-59
2023/12/22 03:04:53;;;;;;;31.90;6.35;;;;;;;;;;4997804;28;20033;-60
2023/12/22 03:07:19;;;;;;;15.70;3.35;;;;;;;;;;4997182;28;20061;-60
2023/12/22 03:09:45;;;;;;;11.45;1.60;;;;;;;;;;4997230;28;20030;-59
2023/12/22 03:12:11;;;;;;;12.68;1.50;;;;;;;;;;4998700;28;20061;-60
2023/12/22 03:14:38;;;;;;;7.95;1.10;;;;;;;;;;4997512;28;20038;-59
2023/12/22 03:17:05;;;;;;;11.05;1.80;;;;;;;;;;4997177;28;20030;-59
2023/12/22 03:19:31;;;;;;;8.93;1.75;;;;;;;;;;4997496;28;22072;-59
2023/12/22 03:21:57;;;;;;;11.73;1.85;;;;;;;;;;4998343;28;20947;-59
2023/12/22 03:24:24;;;;;;;14.50;2.95;;;;;;;;;;4997783;28;20034;-60
2023/12/22 03:26:50;;;;;;;8.70;2.08;;;;;;;;;;4996855;28;21157;-60
2023/12/22 03:29:17;;;;;;;16.63;2.75;;;;;;;;;;4998725;28;20045;-59
2023/12/22 03:31:43;;;;;;;19.92;2.60;;;;;;;;;;4997591;28;20041;-59
2023/12/22 03:34:09;;;;;;;13.45;2.47;;;;;;;;;;4997677;28;20066;-59
2023/12/22 03:36:35;;;;;;;26.38;3.53;;;;;;;;;;4997021;28;20029;-59
2023/12/22 03:39:02;;;;;;;19.65;3.45;;;;;;;;;;4997478;28;21041;-59
2023/12/22 03:41:29;;;;;;;23.20;3.13;;;;;;;;;;4998134;28;20036;-59
2023/12/22 03:43:55;;;;;;;17.08;3.38;;;;;;;;;;4997695;28;20052;-59
2023/12/22 03:46:21;;;;;;;8.43;1.33;;;;;;;;;;4997729;28;20124;-60
2023/12/22 03:48:47;;;;;;;6.50;1.75;;;;;;;;;;4997323;28;20416;-59
2023/12/22 03:51:14;;;;;;;12.45;1.80;;;;;;;;;;4998402;28;20473;-59
2023/12/22 03:53:41;;;;;;;10.95;1.73;;;;;;;;;;4998067;28;20041;-59
2023/12/22 03:56:08;;;;;;;13.02;2.08;;;;;;;;;;4998284;28;20029;-59
2023/12/22 03:58:34;;;;;;;17.88;2.38;;;;;;;;;;4997313;28;20045;-59
2023/12/22 04:01:00;;;;;;;12.23;2.33;;;;;;;;;;5000005;28;20037;-60
2023/12/22 04:03:27;;;;;;;19.58;2.75;;;;;;;;;;5001232;28;20033;-59
2023/12/22 04:05:53;;;;;;;14.77;2.70;;;;;;;;;;5000852;28;20056;-59
2023/12/22 04:08:20;;;;;;;22.92;3.08;;;;;;;;;;5001082;28;20059;-60
2023/12/22 04:10:46;;;;;;;16.80;2.72;;;;;;;;;;4999824;28;20030;-59
2023/12/22 04:13:12;;;;;;;23.70;3.03;;;;;;;;;;5000819;28;20049;-60
2023/12/22 04:15:38;;;;;;;20.55;3.67;;;;;;;;;;5000535;28;20045;-59
2023/12/22 04:18:04;;;;;;;22.02;3.50;;;;;;;;;;5001022;28;20045;-59
2023/12/22 04:20:31;;;;;;;21.17;3.70;;;;;;;;;;5000592;28;20140;-59
2023/12/22 04:22:57;;;;;;;26.30;4.47;;;;;;;;;;5000250;28;20126;-59
2023/12/22 04:25:25;;;;;;;19.90;3.78;;;;;;;;;;5000013;28;20034;-59
2023/12/22 04:27:51;;;;;;;26.63;3.97;;;;;;;;;;5000219;28;20021;-59
2023/12/22 04:30:17;;;;;;;30.50;4.30;;;;;;;;;;5000240;28;20041;-59
2023/12/22 04:32:43;;;;;;;26.65;4.25;;;;;;;;;;4999372;28;20029;-60
2023/12/22 04:35:09;;;;;;;27.55;4.85;;;;;;;;;;5000639;28;20048;-59
2023/12/22 04:37:35;;;;;;;31.63;4.65;;;;;;;;;;4998634;28;21415;-59
2023/12/22 04:40:01;;;;;;;30.58;4.95;;;;;;;;;;4999503;28;20113;-59
2023/12/22 04:42:28;;;;;;;31.83;5.45;;;;;;;;;;5000344;28;20026;-59
2023/12/22 04:44:54;;;;;;;26.58;4.10;;;;;;;;;;5000244;28;20034;-59
2023/12/22 04:47:20;;;;;;;27.17;6.28;;;;;;;;;;5000477;28;20025;-60
2023/12/22 04:49:46;;;;;;;31.83;5.18;;;;;;;;;;4999815;28;20155;-60
2023/12/22 04:52:12;;;;;;;24.42;4.65;;;;;;;;;;5015365;28;20025;-59
2023/12/22 04:54:39;;;;;;;25.70;5.45;;;;;;;;;;5000174;28;20536;-60
2023/12/22 04:57:05;;;;;;;21.13;3.58;;;;;;;;;;4999675;28;20049;-59
2023/12/22 04:59:31;;;;;;;18.40;3.85;;;;;;;;;;5000135;28;20655;-60
2023/12/22 05:01:57;;;;;;;20.95;4.00;;;;;;;;;;4999798;28;20061;-60
2023/12/22 05:04:23;;;;;;;24.48;4.38;;;;;;;;;;4999222;28;20040;-60
2023/12/22 05:06:49;;;;;;;25.67;4.35;;;;;;;;;;4999452;28;20144;-59
2023/12/22 05:09:16;;;;;;;24.55;4.38;;;;;;;;;;4999799;28;20060;-59
2023/12/22 05:11:42;;;;;;;23.30;5.07;;;;;;;;;;4999784;28;20044;-59
2023/12/22 05:14:08;;;;;;;24.27;4.43;;;;;;;;;;4999428;28;20068;-60
2023/12/22 05:16:34;;;;;;;28.33;4.97;;;;;;;;;;5000316;28;20036;-60
2023/12/22 05:19:00;;;;;;;27.05;4.13;;;;;;;;;;4998666;28;20037;-59
2023/12/22 05:21:27;;;;;;;21.80;3.67;;;;;;;;;;5000042;28;20041;-60
2023/12/22 05:23:53;;;;;;;27.27;4.88;;;;;;;;;;4998993;28;20033;-60
2023/12/22 05:26:20;;;;;;;29.77;3.97;;;;;;;;;;4999860;28;20036;-60
2023/12/22 05:28:46;;;;;;;20.92;3.50;;;;;;;;;;4999627;28;21884;-60
2023/12/22 05:31:12;;;;;;;23.27;3.65;;;;;;;;;;4998278;28;20038;-60
2023/12/22 05:33:38;;;;;;;23.05;4.15;;;;;;;;;;4999645;28;20604;-60
2023/12/22 05:36:05;;;;;;;13.73;3.08;;;;;;;;;;4998870;28;20400;-60
2023/12/22 05:38:31;;;;;;;16.88;3.03;;;;;;;;;;4999573;28;20041;-60
2023/12/22 05:40:57;;;;;;;22.02;3.53;;;;;;;;;;4998658;28;20037;-60
2023/12/22 05:43:23;;;;;;;21.65;3.42;;;;;;;;;;4999426;28;20029;-60
2023/12/22 05:45:49;;;;;;;22.23;3.42;;;;;;;;;;4998674;28;20037;-59
2023/12/22 05:48:15;;;;;;;17.95;3.17;;;;;;;;;;4999270;28;21010;-59
2023/12/22 05:50:41;;;;;;;18.15;2.80;;;;;;;;;;4997315;28;21827;-60
2023/12/22 05:53:07;;;;;;;21.63;4.40;;;;;;;;;;4999392;28;20053;-59
2023/12/22 05:55:33;;;;;;;12.85;3.13;;;;;;;;;;4999053;28;20041;-59
2023/12/22 05:57:59;;;;;;;20.00;3.35;;;;;;;;;;4997510;28;20064;-59
2023/12/22 06:00:26;;;;;;;17.30;3.40;;;;;;;;;;4998189;28;20042;-59
2023/12/22 06:02:52;;;;;;;23.55;4.68;;;;;;;;;;4999201;28;20157;-59
2023/12/22 06:05:18;;;;;;;24.58;3.88;;;;;;;;;;4998294;28;20124;-59
2023/12/22 06:07:44;;;;;;;22.70;4.55;;;;;;;;;;4998371;28;20497;-60
2023/12/22 06:10:10;;;;;;;25.38;3.67;;;;;;;;;;4997760;28;20037;-60
2023/12/22 06:12:37;;;;;;;17.52;3.95;;;;;;;;;;4996933;28;20022;-59
2023/12/22 06:15:03;;;;;;;23.73;3.95;;;;;;;;;;4998103;28;20025;-60
2023/12/22 06:17:29;;;;;;;27.17;3.75;;;;;;;;;;4997693;28;20034;-59
2023/12/22 06:19:55;;;;;;;19.05;3.35;;;;;;;;;;4997472;28;20029;-59
2023/12/22 06:22:22;;;;;;;20.75;5.05;;;;;;;;;;4997695;28;20034;-60
2023/12/22 06:24:48;;;;;;;25.58;4.18;;;;;;;;;;4998249;28;20134;-59
2023/12/22 06:27:15;;;;;;;19.88;3.42;;;;;;;;;;4997553;28;20184;-59
2023/12/22 06:29:41;;;;;;;16.75;3.20;;;;;;;;;;4998404;28;20025;-59
2023/12/22 06:32:07;;;;;;;22.23;4.78;;;;;;;;;;4997688;28;20029;-60
2023/12/22 06:34:33;;;;;;;20.38;3.17;;;;;;;;;;4996983;28;20037;-59
2023/12/22 06:36:59;;;;;;;15.60;3.70;;;;;;;;;;4995855;28;20037;-59
2023/12/22 06:39:25;;;;;;;14.25;3.10;;;;;;;;;;4997657;28;20037;-59
2023/12/22 06:41:51;;;;;;;19.60;3.60;;;;;;;;;;4997913;28;20048;-59
2023/12/22 06:44:17;;;;;;;20.25;3.17;;;;;;;;;;4998291;28;20034;-60
2023/12/22 06:46:43;;;;;;;20.35;2.83;;;;;;;;;;4998002;28;20026;-59
2023/12/22 06:49:09;;;;;;;17.00;3.15;;;;;;;;;;4997379;28;20029;-60
2023/12/22 06:51:35;;;;;;;23.60;2.75;;;;;;;;;;4997840;28;20037;-60
2023/12/22 06:54:02;;;;;;;17.02;2.97;;;;;;;;;;4998841;28;20040;-59
2023/12/22 06:56:29;;;;;;;17.90;3.28;;;;;;;;;;4997831;28;20030;-60
2023/12/22 06:58:57;;;;;;;19.23;2.88;;;;;;;;;;4996866;28;20054;-60
2023/12/22 07:01:33;;;;;;;16.20;2.75;;;;;;;;;;4997564;28;20034;-59
2023/12/22 07:04:00;;;;;;;19.88;2.85;;;;;;;;;;4997952;28;20045;-59
2023/12/22 07:06:28;;;;;;;16.75;3.17;;;;;;;;;;4996884;28;20033;-59
2023/12/22 07:09:12;;;;;;;15.63;3.00;;;;;;;;;;4997847;28;20053;-59
2023/12/22 07:11:39;;;;;;;15.52;2.53;;;;;;;;;;4997145;28;20028;-60
2023/12/22 07:14:05;;;;;;;16.23;2.90;;;;;;;;;;4996507;28;21131;-60
2023/12/22 07:16:31;;;;;;;19.20;2.80;;;;;;;;;;4997533;28;20052;-60
2023/12/22 07:18:57;;;;;;;17.40;3.88;;;;;;;;;;4997684;28;20037;-60
2023/12/22 07:21:23;;;;;;;13.30;2.58;;;;;;;;;;4997063;28;20044;-60
2023/12/22 07:23:49;;;;;;;20.23;3.15;;;;;;;;;;4998452;28;20049;-60
2023/12/22 07:26:15;;;;;;;18.92;3.78;;;;;;;;;;4997397;28;20041;-59
2023/12/22 07:28:41;;;;;;;19.08;3.08;;;;;;;;;;4997348;28;20029;-59
2023/12/22 07:31:07;;;;;;;17.20;2.92;;;;;;;;;;4997679;28;20034;-60
2023/12/22 07:33:33;;;;;;;15.10;2.47;;;;;;;;;;4997629;28;20040;-60
2023/12/22 07:35:59;;;;;;;16.33;2.70;;;;;;;;;;5001434;28;20037;-59
2023/12/22 07:38:25;;;;;;;14.73;3.35;;;;;;;;;;5000828;28;20522;-59
2023/12/22 07:40:52;;;;;;;18.40;3.53;;;;;;;;;;5002461;28;20587;-59
2023/12/22 07:43:18;;;;;;;22.38;3.45;;;;;;;;;;5001116;28;20045;-60
2023/12/22 07:45:44;;;;;;;20.67;3.35;;;;;;;;;;5001922;28;20785;-59
2023/12/22 07:48:10;;;;;;;20.90;4.00;;;;;;;;;;5001555;28;20014;-60
2023/12/22 07:50:36;;;;;;;18.80;3.42;;;;;;;;;;5000694;28;20025;-59
2023/12/22 07:53:02;;;;;;;17.52;3.08;;;;;;;;;;5000871;28;20041;-59
2023/12/22 07:55:28;;;;;;;20.60;3.30;;;;;;;;;;5001690;28;20034;-59
2023/12/22 07:57:54;;;;;;;14.90;2.90;;;;;;;;;;5000932;28;20042;-60
2023/12/22 08:00:20;;;;;;;18.77;3.10;;;;;;;;;;5000949;28;20037;-60
2023/12/22 08:02:46;;;;;;;18.98;3.10;;;;;;;;;;5000716;28;20561;-59
2023/12/22 08:05:14;;;;;;;25.67;4.13;;;;;;;;;;5000709;28;21067;-60
2023/12/22 08:07:40;;;;;;;13.15;2.15;;;;;;;;;;5000148;28;20053;-59
2023/12/22 08:10:06;;;;;;;17.90;3.88;;;;;;;;;;4999912;28;20025;-59
2023/12/22 08:12:33;;;;;;;17.75;3.72;;;;;;;;;;4999939;28;20030;-59
2023/12/22 08:14:59;;;;;;;14.68;2.83;;;;;;;;;;5001212;28;20113;-60
2023/12/22 08:17:25;;;;;;;21.83;4.03;;;;;;;;;;5001118;28;20033;-60
2023/12/22 08:19:51;;;;;;;19.45;2.97;;;;;;;;;;5001115;28;20852;-59
2023/12/22 08:22:17;;;;;;;14.52;2.70;;;;;;;;;;5000522;28;20053;-60
2023/12/22 08:24:43;;;;;;;19.38;3.30;;;;;;;;;;5000772;28;20049;-59
2023/12/22 08:27:09;;;;;;;18.52;3.08;;;;;;;;;;4999742;28;20072;-59
2023/12/22 08:29:36;;;;;;;16.02;2.63;;;;;;;;;;4999874;28;20064;-60
2023/12/22 08:32:02;;;;;;;14.43;2.75;;;;;;;;;;5012666;28;20412;-60
2023/12/22 08:34:28;;;;;;;14.27;3.15;;;;;;;;;;4999893;28;20026;-59
2023/12/22 08:36:54;;;;;;;13.65;3.05;;;;;;;;;;4999060;28;20037;-59
2023/12/22 08:39:20;;;;;;;19.85;2.78;;;;;;;;;;4999128;28;20053;-60
2023/12/22 08:41:47;;;;;;;21.25;3.58;;;;;;;;;;4998907;28;21163;-60
2023/12/22 08:44:17;;;;;;;16.40;3.50;;;;;;;;;;4999995;28;20056;-59
2023/12/22 08:46:43;;;;;;;14.77;2.75;;;;;;;;;;4999753;28;20030;-59
2023/12/22 08:49:09;;;;;;;17.10;3.33;;;;;;;;;;5000632;28;20034;-60
2023/12/22 08:51:35;;;;;;;20.20;3.60;;;;;;;;;;4999329;28;20025;-59
2023/12/22 08:54:01;;;;;;;17.63;3.08;;;;;;;;;;4996582;28;20052;-60
2023/12/22 08:56:27;;;;;;;21.23;3.25;;;;;;;;;;4998484;28;20048;-59
2023/12/22 08:58:59;;;;;;;15.35;2.60;;;;;;;;;;4999245;28;20716;-60
2023/12/22 09:01:25;;;;;;;19.25;3.08;;;;;;;;;;4999520;28;20647;-60
2023/12/22 09:03:52;;;;;;;15.00;2.83;;;;;;;;;;4998884;28;20115;-59
2023/12/22 09:06:19;;;;;;;17.38;2.50;;;;;;;;;;4999864;28;20873;-59
2023/12/22 09:08:45;;;;;;;13.82;3.78;;;;;;;;;;4993737;28;20030;-59
2023/12/22 09:11:12;;;;;;;13.75;2.63;;;;;;;;;;4999986;28;20057;-59
2023/12/22 09:13:38;;;;;;;16.90;2.63;;;;;;;;;;4997865;28;20033;-59
2023/12/22 09:16:05;;;;;;;13.10;2.83;;;;;;;;;;4999755;28;20042;-60
2023/12/22 09:18:31;;;;;;;11.40;2.10;;;;;;;;;;5000011;28;20764;-59
2023/12/22 09:20:57;;;;;;;21.02;2.50;;;;;;;;;;5000202;28;20042;-60
2023/12/22 09:23:23;;;;;;;17.33;2.38;;;;;;;;;;4998675;28;20030;-60
2023/12/22 09:25:49;;;;;;;9.75;2.10;;;;;;;;;;4999648;28;20814;-59
2023/12/22 09:28:16;;;;;;;14.45;2.53;;;;;;;;;;4999684;28;20228;-60
2023/12/22 09:30:42;;;;;;;24.90;4.03;;;;;;;;;;4997297;28;20096;-60
2023/12/22 09:33:09;;;;;;;16.52;3.60;;;;;;;;;;4998980;28;20583;-60
2023/12/22 09:35:35;;;;;;;9.68;1.70;;;;;;;;;;4995389;28;20029;-60
2023/12/22 09:38:02;;;;;;;11.40;2.67;;;;;;;;;;4999959;28;20041;-59
2023/12/22 09:40:28;;;;;;;10.60;2.28;;;;;;;;;;4998415;28;20030;-59
2023/12/22 09:42:58;;;;;;;14.57;2.78;;;;;;;;;;4999235;28;20041;-59
2023/12/22 09:45:24;;;;;;;15.43;2.13;;;;;;;;;;4999189;28;20064;-59
2023/12/22 09:47:54;;;;;;;11.43;1.90;;;;;;;;;;4999215;28;20031;-59
2023/12/22 09:50:20;;;;;;;11.15;1.67;;;;;;;;;;4998966;28;21992;-60
2023/12/22 09:52:47;;;;;;;14.98;2.42;;;;;;;;;;4998800;28;20043;-60
2023/12/22 09:55:17;;;;;;;9.00;1.73;;;;;;;;;;4999910;28;20030;-60
2023/12/22 09:57:43;;;;;;;10.05;1.77;;;;;;;;;;4998876;28;20041;-59
2023/12/22 10:00:10;;;;;;;14.30;1.67;;;;;;;;;;5014689;28;20149;-60
2023/12/22 10:02:37;;;;;;;12.40;1.85;;;;;;;;;;4999305;28;20030;-59
2023/12/22 10:05:03;;;;;;;14.02;2.15;;;;;;;;;;4997782;28;20038;-60
2023/12/22 10:07:31;;;;;;;11.30;1.98;;;;;;;;;;4998875;28;20814;-60
2023/12/22 10:09:57;;;;;;;16.52;2.35;;;;;;;;;;4998912;28;20120;-59
2023/12/22 10:12:23;;;;;;;14.52;2.42;;;;;;;;;;4998988;28;20071;-60
2023/12/22 10:14:50;;;;;;;26.65;3.35;;;;;;;;;;4999230;28;21571;-59
2023/12/22 10:17:16;;;;;;;15.25;2.75;;;;;;;;;;4999997;28;20435;-60
2023/12/22 10:19:43;;;;;;;9.10;2.15;;;;;;;;;;4999693;28;20037;-60
2023/12/22 10:22:09;;;;;;;19.83;2.78;;;;;;;;;;4999310;28;21942;-60
2023/12/22 10:24:48;;;;;;;20.33;3.60;;;;;;;;;;4999310;28;20052;-60
2023/12/22 10:27:14;;;;;;;15.63;2.70;;;;;;;;;;4999834;28;20030;-60
2023/12/22 10:29:41;;;;;;;18.13;3.00;;;;;;;;;;4999550;28;20792;-60
2023/12/22 10:32:08;;;;;;;18.15;3.20;;;;;;;;;;4999462;28;20035;-60
2023/12/22 10:34:35;;;;;;;23.45;4.35;;;;;;;;;;5000326;28;20041;-60
2023/12/22 10:37:01;;;;;;;14.45;2.83;;;;;;;;;;4996456;28;20374;-60
2023/12/22 10:39:29;;;;;;;11.15;2.85;;;;;;;;;;4999154;28;20034;-60
2023/12/22 10:41:55;;;;;;;15.07;2.85;;;;;;;;;;4999162;28;20040;-60
2023/12/22 10:44:24;;;;;;;16.38;2.55;;;;;;;;;;4998260;28;20087;-59
2023/12/22 10:46:50;;;;;;;16.85;2.78;;;;;;;;;;4997211;28;20612;-60
2023/12/22 10:49:16;;;;;;;17.73;2.78;;;;;;;;;;4998514;28;20643;-60
2023/12/22 10:51:42;;;;;;;12.68;2.35;;;;;;;;;;4997441;28;20041;-60
2023/12/22 10:54:08;;;;;;;13.70;2.65;;;;;;;;;;4998196;28;20766;-60
2023/12/22 10:56:35;;;;;;;14.25;2.83;;;;;;;;;;4998180;28;20029;-60
2023/12/22 10:59:01;;;;;;;12.57;1.83;;;;;;;;;;4998081;28;20679;-59
2023/12/22 11:01:30;;;;;;;12.63;2.72;;;;;;;;;;4997736;28;20157;-60
2023/12/22 11:03:59;;;;;;;12.90;3.05;;;;;;;;;;4998676;28;20112;-60
2023/12/22 11:06:26;;;;;;;14.45;2.58;;;;;;;;;;4997828;28;20030;-59
2023/12/22 11:08:53;;;;;;;14.82;2.70;;;;;;;;;;4999256;28;20084;-60
2023/12/22 11:11:31;;;;;;;9.65;1.83;;;;;;;;;;5000672;28;20703;-59
2023/12/22 11:13:58;;;;;;;13.63;2.40;;;;;;;;;;5002054;28;20247;-60
2023/12/22 11:16:25;;;;;;;15.02;2.72;;;;;;;;;;5001665;28;21902;-60
2023/12/22 11:18:56;;;;;;;15.90;2.10;;;;;;;;;;5001631;28;20033;-60
2023/12/22 11:21:23;;;;;;;16.95;2.45;;;;;;;;;;5001628;28;20037;-59
2023/12/22 11:23:52;;;;;;;18.27;2.30;;;;;;;;;;5002076;28;20030;-59
2023/12/22 11:26:19;;;;;;;13.65;2.33;;;;;;;;;;5001609;28;20044;-60
2023/12/22 11:28:49;;;;;;;21.23;3.47;;;;;;;;;;5001588;28;20119;-60
2023/12/22 11:31:15;;;;;;;11.38;2.55;;;;;;;;;;5001301;28;20033;-59
2023/12/22 11:33:44;;;;;;;14.50;2.70;;;;;;;;;;5001186;28;20025;-59
2023/12/22 11:36:11;;;;;;;15.50;2.83;;;;;;;;;;5002252;28;20026;-59
2023/12/22 11:38:38;;;;;;;18.25;3.20;;;;;;;;;;5013541;28;20122;-59
2023/12/22 11:41:05;;;;;;;23.20;3.55;;;;;;;;;;5001843;28;20040;-60
2023/12/22 11:43:32;;;;;;;15.57;2.25;;;;;;;;;;5002834;28;20061;-60
2023/12/22 11:46:02;;;;;;;16.60;2.33;;;;;;;;;;5001645;28;20030;-59
2023/12/22 11:48:28;;;;;;;11.80;1.95;;;;;;;;;;4999962;28;20113;-60
2023/12/22 11:50:55;;;;;;;17.40;3.20;;;;;;;;;;5002305;28;22213;-59
2023/12/22 11:53:21;;;;;;;17.65;2.47;;;;;;;;;;5001589;28;20241;-60
2023/12/22 11:56:04;;;;;;;20.90;3.13;;;;;;;;;;5000751;28;20038;-60
2023/12/22 11:58:53;;;;;;;14.13;2.45;;;;;;;;;;5000643;28;20065;-60
2023/12/22 12:01:20;;;;;;;15.73;2.80;;;;;;;;;;5000257;28;20038;-60
2023/12/22 12:03:59;;;;;;;16.52;2.38;;;;;;;;;;4999755;28;20044;-60
2023/12/22 12:06:25;;;;;;;19.45;3.08;;;;;;;;;;5000577;28;20650;-59
2023/12/22 12:08:53;;;;;;;18.35;2.75;;;;;;;;;;4999764;28;20128;-59
2023/12/22 12:11:19;;;;;;;16.55;2.40;;;;;;;;;;5000643;28;20060;-60
2023/12/22 12:13:46;;;;;;;13.25;2.45;;;;;;;;;;5000284;28;20056;-60
2023/12/22 12:16:13;;;;;;;15.32;2.67;;;;;;;;;;5000146;28;20729;-60
2023/12/22 12:18:39;;;;;;;14.65;2.30;;;;;;;;;;5000548;28;20144;-60
2023/12/22 12:21:07;;;;;;;8.90;1.83;;;;;;;;;;5006159;28;20054;-59
2023/12/22 12:23:34;;;;;;;24.25;3.22;;;;;;;;;;5008472;28;20026;-59
2023/12/22 12:26:00;;;;;;;16.42;3.42;;;;;;;;;;5007334;28;20125;-59
2023/12/22 12:28:27;;;;;;;11.38;2.33;;;;;;;;;;5007610;28;20030;-59
2023/12/22 12:31:00;;;;;;;10.23;1.70;;;;;;;;;;5008336;28;20029;-59
2023/12/22 12:33:26;;;;;;;11.07;1.67;;;;;;;;;;5007979;28;20512;-59
2023/12/22 12:35:57;;;;;;;12.75;2.47;;;;;;;;;;5007803;28;20470;-59
2023/12/22 12:38:24;;;;;;;15.70;3.05;;;;;;;;;;5008183;28;20582;-59
2023/12/22 12:40:51;;;;;;;21.85;4.40;;;;;;;;;;5007946;28;20030;-59
2023/12/22 12:43:18;;;;;;;9.30;2.05;;;;;;;;;;5006748;28;20029;-59
2023/12/22 12:45:45;;;;;;;18.05;2.10;;;;;;;;;;5006996;28;20026;-60
2023/12/22 12:48:11;;;;;;;14.43;2.00;;;;;;;;;;5007687;28;20029;-60
2023/12/22 12:50:37;;;;;;;13.60;2.58;;;;;;;;;;5007395;28;20064;-59
2023/12/22 12:53:03;;;;;;;14.52;2.50;;;;;;;;;;5007550;28;20088;-59
2023/12/22 12:55:29;;;;;;;17.85;2.78;;;;;;;;;;5007603;28;20045;-59
2023/12/22 12:57:56;;;;;;;17.65;3.28;;;;;;;;;;5007307;28;20037;-59
2023/12/22 13:00:29;;;;;;;13.00;2.08;;;;;;;;;;5007554;28;20413;-59
2023/12/22 13:03:05;;;;;;;13.43;2.05;;;;;;;;;;5007686;28;20030;-59
2023/12/22 13:05:31;;;;;;;12.10;2.42;;;;;;;;;;5007431;28;21050;-59
2023/12/22 13:08:13;;;;;;;11.93;1.80;;;;;;;;;;5017529;28;20029;-60
2023/12/22 13:10:40;;;;;;;16.50;3.17;;;;;;;;;;5006610;28;20049;-60
2023/12/22 13:13:07;;;;;;;12.43;2.00;;;;;;;;;;5005766;28;20057;-59
2023/12/22 13:15:33;;;;;;;9.55;1.80;;;;;;;;;;5007121;28;20068;-60
2023/12/22 13:17:59;;;;;;;10.90;2.13;;;;;;;;;;5006716;28;20056;-59
2023/12/22 13:20:25;;;;;;;10.10;1.70;;;;;;;;;;5006443;28;20080;-60
2023/12/22 13:22:52;;;;;;;13.18;2.03;;;;;;;;;;5007064;28;20929;-59
2023/12/22 13:25:18;;;;;;;12.00;1.83;;;;;;;;;;5007715;28;20148;-60
2023/12/22 13:27:45;;;;;;;7.65;1.65;;;;;;;;;;5007236;28;20113;-59
2023/12/22 13:30:11;;;;;;;7.68;1.40;;;;;;;;;;5005699;28;20105;-60
2023/12/22 13:32:38;;;;;;;12.45;1.58;;;;;;;;;;5006340;28;20584;-59
2023/12/22 13:35:04;;;;;;;8.35;1.40;;;;;;;;;;5006794;28;20117;-60
2023/12/22 13:37:30;;;;;;;7.50;1.70;;;;;;;;;;5007073;28;20047;-60
2023/12/22 13:40:00;;;;;;;9.50;1.20;;;;;;;;;;5007164;28;20555;-59
2023/12/22 13:42:26;;;;;;;10.65;1.45;;;;;;;;;;5006724;28;20038;-59
2023/12/22 13:44:52;;;;;;;10.43;1.30;;;;;;;;;;5007198;28;20037;-59
2023/12/22 13:47:19;;;;;;;8.85;1.20;;;;;;;;;;5005428;28;20033;-59
2023/12/22 13:49:48;;;;;;;10.88;1.35;;;;;;;;;;5006453;28;20120;-59
2023/12/22 13:52:28;;;;;;;5.45;1.00;;;;;;;;;;5006924;28;20512;-60
2023/12/22 13:54:56;;;;;;;9.15;1.33;;;;;;;;;;5006537;28;20033;-60
2023/12/22 13:57:23;;;;;;;7.28;0.93;;;;;;;;;;5006646;28;20056;-60
2023/12/22 13:59:49;;;;;;;6.20;1.02;;;;;;;;;;5006420;28;20057;-59
2023/12/22 14:02:15;;;;;;;12.98;2.17;;;;;;;;;;5006293;28;20791;-60
2023/12/22 14:04:41;;;;;;;9.27;1.38;;;;;;;;;;5006639;28;20052;-60
2023/12/22 14:07:07;;;;;;;8.60;1.50;;;;;;;;;;5006015;28;20025;-59
2023/12/22 14:09:33;;;;;;;10.55;1.63;;;;;;;;;;5006280;28;20026;-60
2023/12/22 14:12:00;;;;;;;12.10;1.20;;;;;;;;;;5006413;28;20141;-59
2023/12/22 14:14:26;;;;;;;10.05;1.65;;;;;;;;;;5006813;28;20033;-59
2023/12/22 14:16:52;;;;;;;8.52;1.70;;;;;;;;;;5007089;28;20083;-60
2023/12/22 14:19:18;;;;;;;10.10;1.23;;;;;;;;;;5005417;28;20047;-60
2023/12/22 14:21:44;;;;;;;14.73;1.95;;;;;;;;;;5006974;28;20453;-60
2023/12/22 14:24:10;;;;;;;17.30;1.83;;;;;;;;;;5006555;28;21872;-59
2023/12/22 14:26:52;;;;;;;9.18;1.77;;;;;;;;;;5006768;28;21199;-60
2023/12/22 14:29:18;;;;;;;10.68;1.23;;;;;;;;;;5006860;28;20022;-59